Neah Bay, WA (Traffic Separation Lighted Buoy) (46087)

Conditions for Tuesday

Daily
Weekly
Monthly
Marine Data Graph

Marine & Boating Location Search

Enter a coastal zip code for marine weather.

General Information

Location: 48.494 North -124.728 West
Buoy Type: 3-meter discus buoy
Buoy Hull: 3D16
Payload: AMPS payload
Owned by: NDBC
Windspeed: Measured by obtained from anemometer
Sea Surface: Measured by Intake

Weather and Wave Data

Time Temp Humidity Wind Dominant Wave Wind Wave Wave Swell Pressure
  Air
(°F)
Water
(°F)
  Dir Speed
(kts)
Speed
(mph)
Period
(sec)
Height
(ft)
Range
(ft)
Period
(sec)
Height
(ft)
Range
(ft)
Period
(sec)
Height
(ft)
Range
(ft)
Atmo.
(in)
Tend.
(in)
20:20 41 47 59 West 11.7 13.4 - - - - - - 29.88 -
20:50 41 47 55 WNW 7.8 8.9 13 4.92 exactly 4.9 4 1.64 0.82 - 2.46 13 4.92 4.10 - 5.74 29.89 +0.06
21:20 41 47 51 WNW 7.8 8.9 - - - - - - 29.90 -
21:50 41 47 48 WNW 5.8 6.7 13 4.59 exactly 4.6 4 1.64 0.82 - 2.46 13 4.92 4.10 - 5.74 29.91 +0.06
22:20 41 47 49 WNW 7.8 8.9 - - - - - - 29.91 -
22:50 41 47 50 WNW 5.8 6.7 12 5.58 exactly 5.6 4 1.64 0.82 - 2.46 12 4.92 4.10 - 5.74 29.92 +0.05
23:20 41 46 46 WNW 5.8 6.7 - - - - - - 29.92 -
23:50 41 46 51 WNW 5.8 6.7 13 5.58 exactly 5.6 4 1.64 0.82 - 2.46 13 4.92 4.10 - 5.74 29.93 +0.04
00:20 42 47 49 WNW 7.8 8.9 - - - - - - 29.94 -
00:50 41 46 50 WNW 7.8 8.9 13 5.91 exactly 5.9 4 1.64 0.82 - 2.46 13 4.92 4.10 - 5.74 29.95 +0.04
01:20 41 46 50 WNW 7.8 8.9 - - - - - - 29.95 -
01:50 41 46 53 NNW 9.7 11.2 13 6.89 exactly 6.9 4 1.64 0.82 - 2.46 13 6.56 5.74 - 7.38 29.96 +0.04
02:20 41 46 51 North 7.8 8.9 - - - - - - 29.95 -
02:50 40 46 52 North 7.8 8.9 11 6.89 exactly 6.9 4 1.64 0.82 - 2.46 11 6.56 5.74 - 7.38 29.95 +0.01
03:20 41 47 51 North 5.8 6.7 - - - - - - 29.94 -
03:50 41 47 50 North 5.8 6.7 13 6.89 exactly 6.9 4 1.64 0.82 - 2.46 13 6.56 5.74 - 7.38 29.95 -
04:20 41 47 49 NNE 3.9 4.5 - - - - - - 29.94 -
04:50 41 47 50 NE 1.9 2.2 - - - - - - 29.94 -0.01
05:20 41 47 61 East 3.9 4.5 - - - - - - 29.94 -
05:50 40 47 67 ESE 5.8 6.7 12 6.23 exactly 6.2 - - - 12 6.56 5.74 - 7.38 29.94 -0.01
06:20 41 47 64 East 7.8 8.9 - - - - - - 29.93 -
06:50 40 47 70 East 11.7 13.4 13 5.91 exactly 5.9 5 1.64 0.82 - 2.46 13 4.92 4.10 - 5.74 29.93 -0.02
07:20 41 47 70 East 11.7 13.4 - - - - - - 29.93 -
07:50 40 47 76 ENE 9.7 11.2 12 5.91 exactly 5.9 3 1.64 0.82 - 2.46 12 6.56 5.74 - 7.38 29.93 -0.01
08:20 40 47 83 ENE 9.7 11.2 - - - - - - 29.93 -
08:50 40 47 84 East 11.7 13.4 13 6.56 exactly 6.6 4 1.64 0.82 - 2.46 13 6.56 5.74 - 7.38 29.93 -
09:20 40 47 87 East 13.6 15.7 - - - - - - 29.93 -
09:50 40 47 88 East 13.6 15.7 13 5.91 exactly 5.9 3 1.64 0.82 - 2.46 13 6.56 5.74 - 7.38 29.92 -
10:20 40 47 93 East 15.6 17.9 - - - - - - 29.92 -
10:50 41 47 92 ESE 15.6 17.9 13 6.56 exactly 6.6 3 1.64 0.82 - 2.46 13 6.56 5.74 - 7.38 29.91 -0.02
11:20 41 47 93 ESE 17.5 20.1 - - - - - - 29.91 -
11:50 41 47 95 ESE 17.5 20.1 16 6.23 exactly 6.2 3 1.64 0.82 - 2.46 16 6.56 5.74 - 7.38 29.91 -0.03
12:20 42 47 92 ESE 19.4 22.4 - - - - - - 29.89 -
12:50 42 47 92 ESE 21.4 24.6 16 6.56 exactly 6.6 3 1.64 0.82 - 2.46 16 6.56 5.74 - 7.38 29.89 -0.04
13:20 41 47 96 ESE 19.4 22.4 - - - - - - 29.89 -
13:50 42 47 94 ESE 17.5 20.1 12 7.22 exactly 7.2 4 3.28 2.46 - 4.10 12 6.56 5.74 - 7.38 29.90 -0.02
14:20 42 47 96 ESE 17.5 20.1 - - - - - - 29.90 -
14:50 42 47 98 ESE 15.6 17.9 15 7.55 exactly 7.5 5 3.28 2.46 - 4.10 15 6.56 5.74 - 7.38 29.90 -
15:20 42 47 99 ESE 15.6 17.9 - - - - - - 29.90 -
15:50 42 47 99 ESE 17.5 20.1 12 7.22 exactly 7.2 4 3.28 2.46 - 4.10 12 6.56 5.74 - 7.38 29.90 +0.01
16:20 42 47 100 ESE 17.5 20.1 - - - - - - 29.89 -
16:50 42 47 99 ESE 17.5 20.1 14 7.55 exactly 7.5 5 3.28 2.46 - 4.10 14 6.56 5.74 - 7.38 29.89 -0.01
17:20 42 47 99 ESE 17.5 20.1 - - - - - - 29.88 -
17:50 42 47 99 ESE 17.5 20.1 15 7.22 exactly 7.2 8 3.28 2.46 - 4.10 15 6.56 5.74 - 7.38 29.88 -0.02
18:20 42 47 99 ESE 17.5 20.1 - - - - - - 29.88 -
18:50 42 47 99 ESE 17.5 20.1 15 6.23 exactly 6.2 6 3.28 2.46 - 4.10 15 4.92 4.10 - 5.74 29.88 -0.01
19:20 42 47 99 ESE 17.5 20.1 - - - - - - 29.88 -
19:50 42 47 99 ESE 17.5 20.1 15 6.23 exactly 6.2 6 3.28 2.46 - 4.10 15 4.92 4.10 - 5.74 29.88 -0.01
20:50 42 47 99 ESE 19.4 22.4 14 5.58 exactly 5.6 5 3.28 2.46 - 4.10 14 4.92 4.10 - 5.74 29.86 -0.02
21:20 42 47 99 ESE 19.4 22.4 - - - - - - 29.85 -
21:50 42 47 99 ESE 19.4 22.4 14 5.58 exactly 5.6 5 3.28 2.46 - 4.10 14 4.92 4.10 - 5.74 29.84 -0.04
22:20 42 47 99 ESE 19.4 22.4 - - - - - - 29.82 -
22:50 42 47 97 ESE 21.4 24.6 15 5.58 exactly 5.6 5 3.28 2.46 - 4.10 15 4.92 4.10 - 5.74 29.81 -0.07
23:20 42 47 97 ESE 21.4 24.6 - - - - - - 29.79 -
23:50 42 47 96 ESE 23.3 26.8 15 5.91 exactly 5.9 4 3.28 2.46 - 4.10 15 4.92 4.10 - 5.74 29.78 -0.09
00:20 42 47 96 ESE 23.3 26.8 - - - - - - 29.75 -
00:50 42 47 96 ESE 23.3 26.8 14 5.91 exactly 5.9 5 3.28 2.46 - 4.10 14 4.92 4.10 - 5.74 29.74 -0.10
01:20 43 47
-
ESE 21.4 24.6 - - - - - - 29.72 -
01:50 43 47 91 ESE 21.4 24.6 13 5.91 exactly 5.9 5 4.92 4.10 - 5.74 13 4.92 4.10 - 5.74 29.70 -0.10
02:20 43 47 92 ESE 23.3 26.8 - - - - - - 29.67 -
02:50 43 47 92 ESE 23.3 26.8 10 5.91 exactly 5.9 5 4.92 4.10 - 5.74 10 3.28 2.46 - 4.10 29.66 -0.11
03:50 43 47 94 ESE 27.2 31.3 12 5.91 exactly 5.9 5 3.28 2.46 - 4.10 12 4.92 4.10 - 5.74 29.60 -0.15

Detailed Wave Spectra

Time Water Depth Wave Height Spectral Peak Period Average Wave Period Sampling Interval Wave Record
20:00 843 ft 4.53 ft 13.8 sec 6.9 sec 0.6 sec 2400 sec
21:00 843 ft 4.79 ft 12.9 sec 7.6 sec 0.6 sec 2400 sec
22:00 843 ft 4.69 ft 12.9 sec 8.4 sec 0.6 sec 2400 sec
23:00 843 ft 5.71 ft 12.1 sec 9.0 sec 0.6 sec 2400 sec
00:00 843 ft 5.71 ft 12.9 sec 8.8 sec 0.6 sec 2400 sec
01:00 843 ft 5.84 ft 12.9 sec 8.5 sec 0.6 sec 2400 sec
03:00 843 ft 6.79 ft 11.4 sec 8.7 sec 0.6 sec 2400 sec
04:00 843 ft 6.76 ft 12.9 sec 9.2 sec 0.6 sec 2400 sec
06:00 843 ft 6.14 ft 12.1 sec 9.6 sec 0.6 sec 2400 sec
07:00 843 ft 5.77 ft 12.9 sec 10.1 sec 0.6 sec 2400 sec
08:00 843 ft 6.00 ft 12.1 sec 9.1 sec 0.6 sec 2400 sec
09:00 843 ft 6.50 ft 12.9 sec 10.0 sec 0.6 sec 2400 sec
10:00 843 ft 6.00 ft 12.9 sec 9.5 sec 0.6 sec 2400 sec
11:00 843 ft 6.50 ft 12.9 sec 9.8 sec 0.6 sec 2400 sec
12:00 843 ft 6.36 ft 16.0 sec 8.6 sec 0.6 sec 2400 sec
13:00 843 ft 6.69 ft 16.0 sec 7.5 sec 0.6 sec 2400 sec
14:00 843 ft 7.32 ft 12.1 sec 7.6 sec 0.6 sec 2400 sec
15:00 843 ft 7.48 ft 14.8 sec 8.0 sec 0.6 sec 2400 sec
16:00 843 ft 7.05 ft 12.1 sec 7.5 sec 0.6 sec 2400 sec
17:00 843 ft 7.51 ft 13.8 sec 8.7 sec 0.6 sec 2400 sec
18:00 843 ft 7.32 ft 14.8 sec 9.1 sec 0.6 sec 2400 sec
19:00 843 ft 6.07 ft 14.8 sec 7.9 sec 0.6 sec 2400 sec
20:00 843 ft 6.36 ft 14.8 sec 8.0 sec 0.6 sec 2400 sec
21:00 843 ft 5.41 ft 13.8 sec 6.7 sec 0.6 sec 2400 sec
22:00 843 ft 5.61 ft 13.8 sec 6.5 sec 0.6 sec 2400 sec
23:00 843 ft 5.58 ft 14.8 sec 5.8 sec 0.6 sec 2400 sec
00:00 843 ft 5.81 ft 14.8 sec 6.0 sec 0.6 sec 2400 sec
01:00 843 ft 6.04 ft 13.8 sec 6.1 sec 0.6 sec 2400 sec
02:00 843 ft 6.04 ft 12.9 sec 5.8 sec 0.6 sec 2400 sec
03:00 843 ft 5.94 ft 10.0 sec 5.5 sec 0.6 sec 2400 sec